Cambridge, MA (02138)

1:20 PM EDT on May 26, 2017 (GMT -0400)
Porter Square | | Change Station

Elev 47 ft 42.39 °N, 71.12 °W | Updated 17 seconds ago

Overcast
Overcast
59.4 °F
Feels Like 59.4 °F
N
0.0
Wind Variable Wind from North
Gusts 0.0 mph

Today
High -- | Low -- °F
--% Chance of Precip.
Yesterday
High -- | Low -- °F
Precip. -- in
Pressure 29.53 in
Visibility 10.0 miles
Clouds Few 1000 ft
Mostly Cloudy 1500 ft
Overcast 2400 ft
Dew Point 54 °F
Humidity 82%
Rainfall 0.52 in
Snow Depth Not available.
5:13 AM 8:10 PM
New Moon, 1% visible
METAR KBOS 261654Z 33010KT 10SM FEW010 BKN015 OVC024 14/11 A2953 RMK AO2 RAB1559E08 SLP998 BINOVC P0000 T01390106
Pressure 29.53 in
Visibility 10.0 miles
Clouds Few 1000 ft
Mostly Cloudy 1500 ft
Overcast 2400 ft
Dew Point 54 °F
Humidity 82%
Rainfall 0.52 in
Snow Depth Not available.
5:13 AM 8:10 PM
New Moon, 1% visible
METAR KBOS 261654Z 33010KT 10SM FEW010 BKN015 OVC024 14/11 A2953 RMK AO2 RAB1559E08 SLP998 BINOVC P0000 T01390106

Get Severe Weather Alerts

Thanks for signing up!

Be on the lookout for a verification email in your inbox.

You'll start receiving the daily forecast at 6 AM.

×

10-Day Weather Forecast

Almanac

Astronomy

May. 26, 2017 Rise Set
Actual Time
Civil Twilight
Nautical Twilight
Astronomical Twilight
Moon
Length of Visible Light
Length of Day
Tomorrow will be .
, % of the Moon is Illuminated

Today's Extremes

State Highs State Lows

Community

WunderPhotos

Category 6

Welcome to Category 6. This is the collective home for Weather Underground's featured writeups by Dr. Jeff Masters (right), Bob Henson (left), Chris Burt, and other regular contributors.

Nearby

Air Quality

  Air Quality AQ Index Pollutant
Not available.

Snow Depth

Station Depth Elevation

Earthquake Activity

City Distance Mag. Time & Date
Minimum magnitude displayed is 2.5.

Coastal Water Temperatures

Place Temperature

Stations

Nearby Weather Stations

Station Location Temp. Windchill Dew Point Humidity Wind Precip. Elev Updated Type
                   

Watches & Warnings

There are currently no watches in effect.